ウルムチ地窩堡国際空港の過去48時間の天気

ウルムチ地窩堡国際空港 (Urum-Qi / Diwopu)

現在時刻: 7/5 12:28 CST (7/5 04:28 UTC) 以下の時間は現地時間です。

過去48時間のMETAR気象情報
時間 風向 風速(m/s) 視程 気温(℃) 湿度(%) 気圧(hPa) 天気現象
5 12:00 西北西 5 10km以上 29 23 1005
5 11:30 北西 5 10km以上 28 28 1004
5 11:00 西北西 5 10km以上 27 32 1004
5 10:30 西北西 4 10km以上 27 32 1003
5 10:00 西北西 6 10km以上 27 37 1003
5 09:30 西北西 5 10km以上 27 39 1002
5 09:00 西南西 6 10km以上 27 34 1001
5 08:30 南西 4 10km以上 26 37 1001
5 08:00 西 2 10km以上 24 34 1001
5 07:30 北西 3 10km以上 25 34 1001
5 07:00 西 3 10km以上 25 32 1001
5 06:30 西南西 3 10km以上 25 30 1000
5 06:00 北西 2 10km以上 27 24 999
5 05:30 2 10km以上 27 24 999
5 05:00 不定 1 10km以上 27 24 999
5 04:30 北北西 2 8000m 27 26 999
5 04:00 北北西 2 10km以上 27 26 999
5 03:30 2 10km以上 27 24 999
5 03:00 南南東 4 10km以上 29 20 1000
5 02:30 南東 3 10km以上 28 23 1001
5 02:00 東南東 2 10km以上 29 22 1001
5 01:30 不定 2 10km以上 29 22 1001
5 01:00 南東 3 10km以上 29 23 1001
5 00:30 不定 1 10km以上 29 23 1002
5 00:00 不定 2 10km以上 30 22 1002
4 23:30 南南東 2 10km以上 31 21 1002
4 23:00 1 10km以上 31 19 1002
4 22:30 南南東 2 10km以上 31 19 1002
4 22:00 東南東 2 10km以上 32 18 1003
4 21:30 不定 1 10km以上 32 18 1003
4 21:00 北北西 2 10km以上 32 18 1003
4 20:30 北北西 3 10km以上 33 17 1003
4 20:00 4 10km以上 33 17 1003
4 19:30 3 10km以上 33 19 1003
4 19:00 北東 3 10km以上 35 17 1003
4 18:30 北北東 4 10km以上 34 16 1003
4 18:00 3 10km以上 34 16 1003
4 17:30 4 10km以上 34 16 1003
4 17:00 北北東 4 10km以上 34 16 1003
4 16:30 3 10km以上 34 18 1003
4 16:00 北北東 3 10km以上 34 19 1004
4 15:30 3 10km以上 34 19 1004
4 15:00 4 10km以上 33 23 1004
4 14:30 北北東 4 10km以上 33 23 1004
4 14:00 3 10km以上 32 24 1005
4 13:30 3 10km以上 32 24 1005
4 13:00 北北東 3 10km以上 32 23 1005
4 12:30 3 10km以上 31 22 1005
4 12:00 北西 3 10km以上 31 21 1005
4 11:30 不定 1 10km以上 30 24 1005
4 11:00 不定 2 10km以上 30 24 1006
4 10:30 南西 2 10km以上 28 27 1006
4 10:00 南南西 2 10km以上 28 28 1006
4 09:30 南西 2 10km以上 27 30 1006
4 09:00 南南西 2 10km以上 26 32 1006
4 08:30 南西 2 10km以上 26 32 1006
4 08:00 南南西 3 10km以上 25 36 1006
4 07:30 不定 1 10km以上 24 38 1006
4 07:00 不定 1 10km以上 23 38 1006 低い風塵
4 06:30 不定 1 10km以上 23 41 1006 低い風塵
4 06:00 不定 1 10km以上 24 38 1005
4 05:30 3 10km以上 24 38 1006
4 05:00 2 10km以上 24 38 1006
4 04:30 南南東 3 10km以上 24 38 1006
4 04:00 南南東 2 10km以上 24 38 1006
4 03:30 南西 2 10km以上 25 34 1006
ZWWW 050400Z 30005MPS 270V330 CAVOK 29/06 Q1005 NOSIG
ZWWW 050330Z 32005MPS 290V350 CAVOK 28/08 Q1004 NOSIG
ZWWW 050300Z 30005MPS 270V330 CAVOK 27/09 Q1004 NOSIG
ZWWW 050230Z 30004MPS 270V330 CAVOK 27/09 Q1003 NOSIG
ZWWW 050200Z 30006MPS CAVOK 27/11 Q1003 NOSIG
ZWWW 050130Z 29005MPS CAVOK 27/12 Q1002 NOSIG
ZWWW 050100Z 25006MPS CAVOK 27/10 Q1001 NOSIG
ZWWW 050030Z 23004MPS CAVOK 26/10 Q1001 NOSIG
ZWWW 050000Z 28002MPS 230V330 CAVOK 24/07 Q1001 NOSIG
ZWWW 042330Z 31003MPS CAVOK 25/08 Q1001 NOSIG
ZWWW 042300Z 26003MPS CAVOK 25/07 Q1001 NOSIG
ZWWW 042230Z 25003MPS CAVOK 25/06 Q1000 NOSIG
ZWWW 042200Z 32002MPS CAVOK 27/05 Q0999 NOSIG
ZWWW 042130Z 01002MPS 330V080 CAVOK 27/05 Q0999 NOSIG
ZWWW 042100Z VRB01MPS CAVOK 27/05 Q0999 NOSIG
ZWWW 042030Z 33002MPS 8000 NSC 27/06 Q0999 NOSIG
ZWWW 042000Z 33002MPS CAVOK 27/06 Q0999 NOSIG
ZWWW 041930Z 08002MPS CAVOK 27/05 Q0999 NOSIG
ZWWW 041900Z 16004MPS CAVOK 29/04 Q1000 NOSIG
ZWWW 041830Z 14003MPS 100V170 CAVOK 28/05 Q1001 NOSIG
ZWWW 041800Z 11002MPS 090V170 CAVOK 29/05 Q1001 NOSIG
ZWWW 041730Z VRB02MPS CAVOK 29/05 Q1001 NOSIG
ZWWW 041700Z 14003MPS 080V220 CAVOK 29/06 Q1001 NOSIG
ZWWW 041630Z VRB01MPS CAVOK 29/06 Q1002 NOSIG
ZWWW 041600Z VRB02MPS CAVOK 30/06 Q1002 NOSIG
ZWWW 041530Z 16002MPS 140V220 CAVOK 31/06 Q1002 NOSIG
ZWWW 041500Z 18001MPS CAVOK 31/05 Q1002 NOSIG
ZWWW 041430Z 16002MPS 140V210 CAVOK 31/05 Q1002 NOSIG
ZWWW 041400Z 11002MPS 040V210 CAVOK 32/05 Q1003 NOSIG
ZWWW 041330Z VRB01MPS CAVOK 32/05 Q1003 NOSIG
ZWWW 041300Z 33002MPS 310V010 CAVOK 32/05 Q1003 NOSIG
ZWWW 041230Z 33003MPS 9999 FEW040 33/05 Q1003 NOSIG
ZWWW 041200Z 35004MPS 9999 FEW040 33/05 Q1003 NOSIG
ZWWW 041130Z 01003MPS 320V070 CAVOK 33/06 Q1003 NOSIG
ZWWW 041100Z 04003MPS 330V080 CAVOK 35/06 Q1003 NOSIG
ZWWW 041030Z 03004MPS 340V090 CAVOK 34/05 Q1003 NOSIG
ZWWW 041000Z 35003MPS 310V020 CAVOK 34/05 Q1003 NOSIG
ZWWW 040930Z 36004MPS 330V040 CAVOK 34/05 Q1003 NOSIG
ZWWW 040900Z 02004MPS 340V050 CAVOK 34/05 Q1003 NOSIG
ZWWW 040830Z VRB03MPS CAVOK 34/06 Q1003 NOSIG
ZWWW 040800Z 02003MPS 320V050 CAVOK 34/07 Q1004 NOSIG
ZWWW 040730Z 36003MPS 320V040 CAVOK 34/07 Q1004 NOSIG
ZWWW 040700Z 35004MPS 290V060 CAVOK 33/09 Q1004 NOSIG
ZWWW 040630Z 03004MPS 330V090 CAVOK 33/09 Q1004 NOSIG
ZWWW 040600Z 35003MPS 280V090 CAVOK 32/09 Q1005 NOSIG
ZWWW 040530Z 35003MPS 290V030 CAVOK 32/09 Q1005 NOSIG
ZWWW 040500Z 02003MPS 330V100 CAVOK 32/08 Q1005 NOSIG
ZWWW 040430Z 01003MPS 330V090 CAVOK 31/07 Q1005 NOSIG
ZWWW 040400Z 32003MPS 270V020 CAVOK 31/06 Q1005 NOSIG
ZWWW 040330Z VRB01MPS CAVOK 30/07 Q1005 NOSIG
ZWWW 040300Z VRB02MPS CAVOK 30/07 Q1006 NOSIG
ZWWW 040230Z 23002MPS 200V260 CAVOK 28/07 Q1006 NOSIG
ZWWW 040200Z 21002MPS 160V260 CAVOK 28/08 Q1006 NOSIG
ZWWW 040130Z 23002MPS 170V270 CAVOK 27/08 Q1006 NOSIG
ZWWW 040100Z 20002MPS 170V270 CAVOK 26/08 Q1006 NOSIG
ZWWW 040030Z 22002MPS 150V300 CAVOK 26/08 Q1006 NOSIG
ZWWW 040000Z 20003MPS CAVOK 25/09 Q1006 NOSIG
ZWWW 032330Z VRB01MPS CAVOK 24/09 Q1006 NOSIG
ZWWW 032300Z VRB01MPS 9999 DRDU NSC 23/08 Q1006 NOSIG
ZWWW 032230Z VRB01MPS 9999 DRDU NSC 23/09 Q1006 NOSIG
ZWWW 032200Z VRB01MPS CAVOK 24/09 Q1005 NOSIG
ZWWW 032130Z 18003MPS CAVOK 24/09 Q1006 NOSIG
ZWWW 032100Z 19002MPS CAVOK 24/09 Q1006 NOSIG
ZWWW 032030Z 15003MPS CAVOK 24/09 Q1006 NOSIG
ZWWW 032000Z 15002MPS CAVOK 24/09 Q1006 NOSIG
ZWWW 031930Z 22002MPS 180V260 CAVOK 25/08 Q1006 NOSIG